NEODyS-2

Near Earth Objects - Dynamic Site
NEODyS ∴ Observatories ∴ Site 691 ∴ Obs & residuals
Contact »
691  ▹ 
OBSERVATIONS AND RESIDUALS

691-Steward Observatory, Kitt Peak-Spacewatch

Detections | Residuals | Detections & Residuals

[1-200] [201-400] [401-600] [601-800] [801-1000] [1001-1200] [1201-1400] [1401-1600] [1601-1800] [1801-2000] [2001-2200] [2201-2400] [2401-2600] [2601-2800] [2801-3000] [3001-3200] [3201-3400] [3401-3600] [3601-3800] [3801-4000] [4001-4200] [4201-4400] [4401-4600] [4601-4800] [4801-5000] [5001-5200] [5201-5400] [5401-5600] [5601-5800] [5801-6000] [6001-6200] [6201-6400] [6401-6600] [6601-6800] [6801-7000] [7001-7200] [7201-7400] [7401-7600] [7601-7800] [7801-8000] [8001-8200] [8201-8400] [8401-8600] [8601-8800] [8801-9000] [9001-9200] [9201-9400] [9401-9600] [9601-9800] [9801-10000] [10001-10200] [10201-10400] [10401-10600] [10601-10800] [10801-11000] [11001-11200] [11201-11400] [11401-11600] [11601-11800] [11801-12000] [12001-12200] [12201-12400] [12401-12600] [12601-12800] [12801-13000] [13001-13200] [13201-13400] [13401-13600] [13601-13800] [13801-14000] [14001-14200] [14201-14400] [14401-14600] [14601-14800] [14801-15000] [15001-15200] [15201-15400] [15401-15600] [15601-15800] [15801-16000] [16001-16200] [16201-16400] [16401-16600] [16601-16800] [16801-17000] [17001-17200] [17201-17400] [17401-17600] [17601-17800] [17801-18000] [18001-18200] [18201-18400] [18401-18600] [18601-18800] [18801-19000] [19001-19200] [19201-19400] [19401-19600] [19601-19800] [19801-20000] [20001-20200] [20201-20400] [20401-20600] [20601-20800] [20801-21000] [21001-21200] [21201-21400] [21401-21600] [21601-21800] [21801-22000] [22001-22200] [22201-22400] [22401-22600] [22601-22800] [22801-23000] [23001-23200] [23201-23400] [23401-23600] [23601-23800] [23801-24000] [24001-24200] [24201-24400] [24401-24600] [24601-24800] [24801-25000] [25001-25200] [25201-25400] [25401-25600] [25601-25800] [25801-26000] [26001-26200] [26201-26400] [26401-26600] [26601-26800] [26801-27000] [27001-27200] [27201-27400] [27401-27600] [27601-27800] [27801-28000] [28001-28200] [28201-28400] [28401-28600] [28601-28800] [28801-29000] [29001-29200] [29201-29400] [29401-29600] [29601-29800] [29801-30000] [30001-30200] [30201-30400] [30401-30600] [30601-30800] [30801-31000] [31001-31200] [31201-31400] [31401-31600] [31601-31800] [31801-32000] [32001-32200] [32201-32400] [32401-32600] [32601-32800] [32801-33000] [33001-33200] [33201-33400] [33401-33600] [33601-33800] [33801-34000] [34001-34200] [34201-34400] [34401-34600] [34601-34800] [34801-35000] [35001-35200] [35201-35400] [35401-35600] [35601-35800] [35801-36000] [36001-36200] [36201-36400] [36401-36600] [36601-36800] [36801-37000] [37001-37200] [37201-37400] [37401-37600] [37601-37800] [37801-38000] [38001-38200] [38201-38400] [38401-38600] [38601-38800] [38801-39000] [39001-39200] [39201-39400] [39401-39600] [39601-39800] [39801-40000] [40001-40200] [40201-40400] [40401-40600] [40601-40800] [40801-41000] [41001-41200] [41201-41400] [41401-41600] [41601-41800] [41801-42000] [42001-42200] [42201-42400] [42401-42600] [42601-42800] [42801-43000] [43001-43200] [43201-43400] [43401-43600] [43601-43800] [43801-44000] [44001-44200] [44201-44400] [44401-44600] [44601-44800] [44801-45000] [45001-45200] [45201-45400] [45401-45600] [45601-45800] [45801-46000] [46001-46200] [46201-46400] [46401-46600] [46601-46800] [46801-47000] [47001-47200] [47201-47400] [47401-47600] [47601-47800] [47801-48000] [48001-48200] [48201-48400] [48401-48600] [48601-48800] [48801-49000] [49001-49200] [49201-49400] [49401-49600] [49601-49800] [49801-50000] [50001-50200] [50201-50400] [50401-50600] [50601-50741]

Designation T Tech N Date Right Ascension Declination Apparent Magnitude Star Catalog Site code χ Used A Used M
yr-mo-day precision hr:min:sec precision rms F bias residual deg min sec precision rms F bias residual mag/col rms residual
1994XD O c 1994-12-02.52810 1.000E-05 08:27:09.970 1.500E-01 0.735 F 0.395 -0.215 +16° 17' 04.10" 1.000E-01 0.735 F 0.295 -0.252 19.3 V 0.70 -0.06 i 691 0.45 Yes Yes
1994XD O c 1994-12-02.53603 1.000E-05 08:27:08.200 1.500E-01 0.735 F 0.395 -0.185 +16° 17' 14.40" 1.000E-01 0.735 F 0.295 -0.243 19.3 V 0.70 -0.06 i 691 0.42 Yes Yes
2009HB O C 1994-12-03.21941 1.000E-05 02:52:31.450 1.500E-01 0.600 F -0.206 -0.607 +05° 56' 59.40" 1.000E-01 0.600 F -0.642 0.116 i 691 1.06 Yes No
2009HB O C 1994-12-03.23646 1.000E-05 02:52:30.940 1.500E-01 0.600 F -0.206 -0.091 +05° 56' 56.40" 1.000E-01 0.600 F -0.642 0.021 i 691 0.16 Yes No
2009HB O C 1994-12-03.25341 1.000E-05 02:52:30.400 1.500E-01 0.600 F -0.206 -0.084 +05° 56' 53.40" 1.000E-01 0.600 F -0.642 -0.088 19.6 V 0.70 -0.30 i 691 0.21 Yes Yes
1998XS16 O C 1994-12-03.38077 1.000E-05 07:43:31.800 1.500E-01 0.600 F 0.071 -0.668 +22° 10' 06.40" 1.000E-01 0.600 F -0.259 0.826 18.7 V 0.70 0.04 a 691 1.77 Yes Yes
1998XS16 O C 1994-12-03.40580 1.000E-05 07:43:29.430 1.500E-01 0.600 F 0.071 -0.529 +22° 09' 50.30" 1.000E-01 0.600 F -0.259 0.344 18.2 V 0.70 -0.46 a 691 1.05 Yes Yes
1998XS16 O C 1994-12-03.43101 1.000E-05 07:43:27.040 1.500E-01 0.600 F 0.071 -0.362 +22° 09' 34.90" 1.000E-01 0.600 F -0.259 0.752 17.9 V 0.70 -0.76 a 691 1.39 Yes Yes
1994XD O c 1994-12-03.48670 1.000E-05 08:23:42.430 1.500E-01 0.600 F 0.199 -0.162 +16° 37' 51.80" 1.000E-01 0.600 F 0.128 -0.054 19.2 V 0.70 -0.16 i 691 0.28 Yes Yes
1994XD O c 1994-12-03.49481 1.000E-05 08:23:40.620 1.500E-01 0.600 F 0.199 0.058 +16° 38' 01.80" 1.000E-01 0.600 F 0.128 -0.473 19.5 V 0.70 0.14 i 691 0.79 Yes Yes
1994XD O c 1994-12-03.50778 1.000E-05 08:23:37.700 1.500E-01 0.600 F 0.199 0.024 +16° 38' 18.40" 1.000E-01 0.600 F 0.128 -0.506 19.6 V 0.70 0.24 i 691 0.84 Yes Yes
1994XG O c 1994-12-04.26610 1.000E-05 03:42:55.530 1.500E-01 0.600 F -0.044 0.154 +14° 52' 44.70" 1.000E-01 0.600 F 0.316 0.254 20.9 V 0.70 0.03 i 691 0.51 Yes Yes
1994XG O c 1994-12-04.27436 1.000E-05 03:42:54.780 1.500E-01 0.600 F -0.044 0.561 +14° 52' 39.80" 1.000E-01 0.600 F 0.316 0.084 20.9 V 0.70 0.03 i 691 0.98 Yes Yes
1994XG O c 1994-12-04.28246 1.000E-05 03:42:53.960 1.500E-01 0.600 F -0.044 -0.269 +14° 52' 35.00" 1.000E-01 0.600 F 0.316 -0.073 20.9 V 0.70 0.03 i 691 0.48 Yes Yes
1994XG O c 1994-12-08.29730 1.000E-05 03:37:07.890 1.500E-01 0.600 F 0.137 0.184 +14° 16' 11.40" 1.000E-01 0.600 F -0.125 0.185 21.1 V 0.70 0.04 i 691 0.45 Yes Yes
1994XG O c 1994-12-08.30491 1.000E-05 03:37:07.240 1.500E-01 0.600 F 0.137 0.016 +14° 16' 07.60" 1.000E-01 0.600 F -0.125 0.327 21.3 V 0.70 0.24 i 691 0.56 Yes Yes
1994XG O c 1994-12-08.31283 1.000E-05 03:37:06.580 1.500E-01 0.600 F 0.137 0.072 +14° 16' 03.20" 1.000E-01 0.600 F -0.125 0.033 21.2 V 0.70 0.14 i 691 0.14 Yes Yes
2001XN254 O C 1994-12-08.34048 1.000E-05 08:29:48.400 1.500E-01 0.600 F 0.523 -0.764 +18° 22' 38.80" 1.000E-01 0.600 F -0.112 0.800 18.7 V 0.70 -0.15 a 691 1.86 Yes Yes
1994XD O c 1994-12-08.34655 1.000E-05 08:05:58.550 1.500E-01 0.600 F 0.222 -0.050 +18° 17' 48.40" 1.000E-01 0.600 F -0.016 -0.264 18.9 V 0.70 -0.45 i 691 0.45 Yes Yes
2001XN254 O C 1994-12-08.36308 1.000E-05 08:29:50.370 1.500E-01 0.600 F 0.523 -0.664 +18° 22' 27.50" 1.000E-01 0.600 F -0.112 0.474 18.7 V 0.70 -0.15 a 691 1.38 Yes Yes
1994XD O c 1994-12-08.37117 1.000E-05 08:05:52.950 1.500E-01 0.600 F 0.222 -0.309 +18° 18' 17.50" 1.000E-01 0.600 F -0.016 -0.393 19.0 V 0.70 -0.35 i 691 0.83 Yes Yes
2001XN254 O C 1994-12-08.38779 1.000E-05 08:29:52.560 1.500E-01 0.600 F 0.523 0.092 +18° 22' 14.90" 1.000E-01 0.600 F -0.112 -0.054 18.2 V 0.70 -0.65 a 691 0.18 Yes Yes
1994XM1 O c 1994-12-09.20483 1.000E-05 02:54:06.870 1.500E-01 1.082 F 0.065 0.979 +07° 53' 52.50" 1.000E-01 1.082 F 0.114 -0.756 17.7 V 0.70 0.26 i 691 1.44 Yes Yes
1994XM1 O c 1994-12-09.21353 1.000E-05 02:53:36.100 1.500E-01 1.082 F 0.065 0.120 +08° 01' 35.10" 1.000E-01 1.082 F 0.114 0.464 i 691 0.52 Yes No
1994XM1 O c 1994-12-09.21942 1.000E-05 02:53:14.650 1.500E-01 1.082 F 0.065 -1.728 +08° 06' 55.10" 1.000E-01 1.082 F 0.114 0.870 i 691 2.04 Yes No
1994XM1 O c 1994-12-09.25389 1.000E-05 02:51:01.030 1.500E-01 1.082 F 0.126 0.102 +08° 40' 11.90" 1.000E-01 1.082 F -0.011 0.970 i 691 0.98 Yes No
1994XM1 O c 1994-12-09.25935 1.000E-05 02:50:38.470 1.500E-01 1.082 F 0.126 1.251 +08° 45' 46.70" 1.000E-01 1.082 F -0.011 -1.843 i 691 2.28 Yes No
1994XM1 O c 1994-12-09.26472 1.000E-05 02:50:15.710 1.500E-01 1.082 F 0.023 -0.034 +08° 51' 26.80" 1.000E-01 1.082 F 0.064 0.016 i 691 0.04 Yes No
1994XM1 O c 1994-12-09.32100 1.000E-05 02:45:52.410 1.500E-01 1.082 F -0.489 -1.558 +09° 57' 22.20" 1.000E-01 1.082 F 0.189 0.162 17.0 V 0.70 -0.01 i 691 1.98 Yes Yes
1994XM1 O c 1994-12-09.32645 1.000E-05 02:45:24.130 1.500E-01 1.082 F -0.489 -3.405 +10° 04' 33.20" 1.000E-01 1.082 F 0.189 3.206 i 691 3.64 No No
1994XM1 O c 1994-12-09.37565 1.000E-05 02:40:45.470 1.500E-01 1.082 F -0.299 -0.043 +11° 16' 18.00" 1.000E-01 1.082 F 0.505 0.314 i 691 0.32 Yes No
1994XM1 O c 1994-12-09.38093 1.000E-05 02:40:12.680 1.500E-01 1.082 F -0.242 0.676 +11° 24' 54.00" 1.000E-01 1.082 F 0.642 0.264 16.5 V 0.70 -0.25 i 691 0.74 Yes Yes
1994XM1 O c 1994-12-09.38803 1.000E-05 02:39:27.670 1.500E-01 1.082 F 0.134 2.415 +11° 36' 45.60" 1.000E-01 1.082 F 0.465 -0.322 i 691 2.51 Yes No
1994XM1 O c 1994-12-09.39398 1.000E-05 02:38:48.730 1.500E-01 1.082 F 0.134 -0.416 +11° 46' 59.90" 1.000E-01 1.082 F 0.465 -0.122 i 691 0.47 Yes No
1994XM1 O c 1994-12-09.39985 1.000E-05 02:38:09.570 1.500E-01 1.082 F 0.134 -1.762 +11° 57' 21.80" 1.000E-01 1.082 F 0.465 -0.017 i 691 2.10 Yes No
Florence O C 1994-12-09.50777 1.000E-05 11:51:38.580 1.500E-01 0.600 F -0.623 0.105 +03° 10' 53.80" 1.000E-01 0.600 F 0.219 0.490 18.4 V 0.70 -0.28 a 691 0.83 Yes Yes
Florence O C 1994-12-09.52380 1.000E-05 11:51:39.270 1.500E-01 0.600 F -0.623 0.084 +03° 10' 44.40" 1.000E-01 0.600 F 0.219 0.570 18.3 V 0.70 -0.38 a 691 0.96 Yes Yes
Florence O C 1994-12-09.53966 1.000E-05 11:51:39.970 1.500E-01 0.600 F -0.623 0.340 +03° 10' 35.10" 1.000E-01 0.600 F 0.219 0.649 18.3 V 0.70 -0.38 a 691 1.22 Yes Yes
1994XG O c 1994-12-10.16730 1.000E-05 03:34:41.120 1.500E-01 0.600 F -0.110 0.147 +14° 00' 35.50" 1.000E-01 0.600 F 0.019 -0.070 21.1 V 0.70 -0.04 i 691 0.28 Yes Yes
1994XG O c 1994-12-10.17473 1.000E-05 03:34:40.440 1.500E-01 0.600 F -0.110 -1.226 +14° 00' 33.30" 1.000E-01 0.600 F 0.019 1.308 21.0 V 0.70 -0.14 i 691 3.10 Yes Yes
1994XG O c 1994-12-10.18276 1.000E-05 03:34:39.890 1.500E-01 0.600 F -0.110 -0.015 +14° 00' 28.90" 1.000E-01 0.600 F 0.019 0.779 20.7 V 0.70 -0.44 i 691 1.34 Yes Yes
1994XD O c 1994-12-10.36980 1.000E-05 07:58:33.660 1.500E-01 0.600 F 0.134 -0.448 +18° 56' 22.60" 1.000E-01 0.600 F -0.028 -0.322 19.3 V 0.70 -0.06 i 691 0.92 Yes Yes
1994XD O c 1994-12-10.37748 1.000E-05 07:58:31.960 1.500E-01 0.600 F 0.134 0.106 +18° 56' 31.10" 1.000E-01 0.600 F -0.028 -0.459 19.2 V 0.70 -0.16 i 691 0.79 Yes Yes
1994XD O c 1994-12-10.38555 1.000E-05 07:58:30.120 1.500E-01 0.600 F 0.134 -0.061 +18° 56' 40.50" 1.000E-01 0.600 F -0.028 -0.121 19.3 V 0.70 -0.06 i 691 0.23 Yes Yes
1994WR12 O C 1994-12-28.07588 1.000E-05 01:08:30.020 1.500E-01 0.600 F -0.012 0.653 +24° 35' 12.70" 1.000E-01 0.600 F 0.286 0.358 21.5 V 0.70 0.48 c 691 1.26 Yes Yes
1994WR12 O C 1994-12-28.08636 1.000E-05 01:08:30.220 1.500E-01 0.600 F -0.012 -0.535 +24° 35' 15.00" 1.000E-01 0.600 F 0.286 0.694 21.6 V 0.70 0.58 c 691 1.50 Yes Yes
1986DA O c 1994-12-28.20609 1.000E-05 03:21:04.930 1.500E-01 0.600 F 0.077 -0.180 +18° 37' 08.10" 1.000E-01 0.600 F 0.010 -0.488 20.3 V 0.70 -0.07 i 691 0.87 Yes Yes
1986DA O c 1994-12-28.23044 1.000E-05 03:21:03.860 1.500E-01 0.600 F 0.077 0.037 +18° 37' 06.00" 1.000E-01 0.600 F 0.010 -0.186 i 691 0.32 Yes No
1986DA O c 1994-12-28.25501 1.000E-05 03:21:02.750 1.500E-01 0.600 F 0.077 -0.215 +18° 37' 03.30" 1.000E-01 0.600 F 0.010 -0.438 i 691 0.81 Yes No
1994XD O c 1994-12-28.28155 1.000E-05 06:58:43.630 1.500E-01 0.600 F 0.329 -0.610 +23° 02' 44.80" 1.000E-01 0.600 F 0.109 -0.452 18.9 V 0.70 -0.48 i 691 1.27 Yes Yes
1994XD O c 1994-12-28.28983 1.000E-05 06:58:42.210 1.500E-01 0.600 F 0.329 -0.197 +23° 02' 49.50" 1.000E-01 0.600 F 0.109 -0.302 18.7 V 0.70 -0.68 i 691 0.60 Yes Yes
1994XD O c 1994-12-28.29806 1.000E-05 06:58:40.750 1.500E-01 0.600 F 0.329 -0.451 +23° 02' 54.00" 1.000E-01 0.600 F 0.109 -0.311 19.0 V 0.70 -0.38 i 691 0.91 Yes Yes
1991AM O c 1994-12-28.38499 1.000E-05 08:40:12.320 1.500E-01 0.600 F -0.175 -0.147 +11° 03' 36.10" 1.000E-01 0.600 F 0.287 -0.306 19.3 V 0.70 -0.61 i 691 0.57 Yes Yes
1991AM O c 1994-12-28.39275 1.000E-05 08:40:11.820 1.500E-01 0.600 F -0.175 0.044 +11° 03' 39.90" 1.000E-01 0.600 F 0.287 -0.307 i 691 0.52 Yes No
1991AM O c 1994-12-28.40049 1.000E-05 08:40:11.300 1.500E-01 0.600 F -0.175 -0.076 +11° 03' 43.60" 1.000E-01 0.600 F 0.287 -0.398 i 691 0.68 Yes No
1994WR12 O C H 1994-12-31.14673 1.000E-05 01:10:57.410 1.500E-01 0.600 F -0.012 -0.320 +24° 45' 04.10" 1.000E-01 0.600 F 0.286 0.944 21.3 V 0.70 0.06 c 691 1.70 Yes Yes
1994WR12 O C 1994-12-31.15675 1.000E-05 01:10:57.820 1.500E-01 0.600 F -0.012 0.414 +24° 45' 05.70" 1.000E-01 0.600 F 0.286 0.907 22.1 V 0.70 0.85 c 691 1.69 Yes Yes
1994XD O C 1995-01-07.32664 1.000E-05 06:34:21.400 1.500E-01 0.600 F 0.060 -0.714 +24° 11' 51.10" 1.000E-01 0.600 F -0.192 -0.299 19.0 V 0.70 -0.94 i 691 1.29 Yes Yes
1991AM O c 1995-01-28.41321 1.000E-05 07:52:55.340 1.500E-01 0.600 F -0.211 -0.116 +16° 49' 50.90" 1.000E-01 0.600 F 0.532 -0.875 20.0 V 0.70 0.86 i 691 1.47 Yes Yes
1991AM O c 1995-01-28.42079 1.000E-05 07:52:54.530 1.500E-01 0.600 F -0.211 0.090 +16° 49' 57.20" 1.000E-01 0.600 F 0.532 -0.372 i 691 0.64 Yes No
1991AM O c 1995-01-28.42892 1.000E-05 07:52:53.660 1.500E-01 0.600 F -0.211 0.285 +16° 50' 03.00" 1.000E-01 0.600 F 0.532 -0.788 i 691 1.40 Yes No
Golombek O c 1995-01-28.45208 1.000E-05 13:03:03.530 1.500E-01 0.600 F -0.346 0.205 -14° 23' 43.30" 1.000E-01 0.600 F -0.124 0.797 i 691 1.37 Yes No
Golombek O c 1995-01-28.45440 1.000E-05 13:03:03.600 1.500E-01 0.600 F -0.346 0.259 -14° 23' 45.20" 1.000E-01 0.600 F -0.124 0.070 i 691 0.45 Yes No
Golombek O c 1995-01-28.46032 1.000E-05 13:03:03.820 1.500E-01 0.600 F -0.346 0.998 -14° 23' 48.80" 1.000E-01 0.600 F -0.124 -0.537 i 691 1.89 Yes No
Golombek O c 1995-01-29.45946 1.000E-05 13:03:33.350 1.500E-01 0.600 F -0.346 0.570 -14° 32' 10.90" 1.000E-01 0.600 F -0.124 -1.162 20.7 R 0.70 0.83 i 691 2.16 Yes Yes
1995BK2 O c 1995-01-31.19741 1.000E-05 09:23:40.120 1.500E-01 1.039 F 0.215 0.663 +17° 19' 44.90" 1.000E-01 1.039 F -0.125 2.072 18.8 V 0.70 0.14 i 691 2.19 Yes Yes
1995BK2 O c 1995-01-31.21995 1.000E-05 09:23:48.880 1.500E-01 1.039 F 0.215 0.117 +17° 24' 45.10" 1.000E-01 1.039 F -0.125 2.160 18.8 V 0.70 0.14 i 691 2.16 Yes Yes
1995BK2 O c 1995-01-31.25692 1.000E-05 09:24:03.200 1.500E-01 1.039 F 0.215 0.217 +17° 32' 53.20" 1.000E-01 1.039 F -0.125 -1.029 18.6 V 0.70 -0.06 i 691 1.05 Yes Yes
1995BK2 O c 1995-01-31.26645 1.000E-05 09:24:06.800 1.500E-01 1.039 F 0.215 -0.785 +17° 34' 59.30" 1.000E-01 1.039 F -0.125 -1.364 18.9 V 0.70 0.24 i 691 1.58 Yes Yes
1995BK2 O c 1995-01-31.27427 1.000E-05 09:24:09.800 1.500E-01 1.039 F 0.215 -0.881 +17° 36' 44.00" 1.000E-01 1.039 F -0.125 -0.344 18.9 V 0.70 0.24 i 691 0.95 Yes Yes
1995BK2 O c 1995-01-31.28264 1.000E-05 09:24:13.050 1.500E-01 1.039 F 0.215 -0.365 +17° 38' 34.70" 1.000E-01 1.039 F -0.125 -0.548 18.8 V 0.70 0.14 i 691 0.66 Yes Yes
1995BK2 O c 1995-01-31.37107 1.000E-05 09:24:46.970 1.500E-01 1.039 F 0.313 0.715 +17° 58' 01.60" 1.000E-01 1.039 F -0.241 -0.633 18.6 V 0.70 -0.07 i 691 0.94 Yes Yes
1995BK2 O c 1995-01-31.37932 1.000E-05 09:24:50.030 1.500E-01 1.039 F 0.313 -0.719 +17° 59' 50.00" 1.000E-01 1.039 F -0.241 -0.673 18.8 V 0.70 0.13 i 691 0.98 Yes Yes
1995BK2 O c 1995-01-31.38933 1.000E-05 09:24:53.880 1.500E-01 1.039 F 0.313 -0.562 +18° 02' 00.60" 1.000E-01 1.039 F -0.241 -1.546 18.8 V 0.70 0.13 i 691 1.63 Yes Yes
1995BL2 O c 1995-01-31.40709 1.000E-05 09:21:53.320 1.500E-01 0.600 F 0.307 -0.207 +13° 21' 47.30" 1.000E-01 0.600 F 0.103 0.292 i 691 0.60 Yes No
1995BL2 O c 1995-01-31.42953 1.000E-05 09:21:49.570 1.500E-01 0.600 F 0.307 -0.136 +13° 21' 41.70" 1.000E-01 0.600 F 0.103 0.062 18.3 V 0.70 -0.28 i 691 0.25 Yes Yes
1995BL2 O c 1995-01-31.45154 1.000E-05 09:21:45.880 1.500E-01 0.600 F 0.307 -0.322 +13° 21' 36.60" 1.000E-01 0.600 F 0.103 0.265 18.4 V 0.70 -0.18 i 691 0.70 Yes Yes
1995BK2 O c 1995-01-31.46547 1.000E-05 09:25:23.350 1.500E-01 1.039 F 0.313 -0.356 +18° 18' 37.60" 1.000E-01 1.039 F -0.241 -1.050 18.7 V 0.70 0.02 i 691 1.10 Yes Yes
1995BK2 O c 1995-01-31.47623 1.000E-05 09:25:27.580 1.500E-01 1.039 F 0.313 -0.108 +18° 20' 59.60" 1.000E-01 1.039 F -0.241 0.599 18.7 V 0.70 0.02 i 691 0.60 Yes Yes
1995BK2 O c 1995-01-31.48690 1.000E-05 09:25:31.820 1.500E-01 1.039 F 0.313 0.568 +18° 23' 17.40" 1.000E-01 1.039 F -0.241 -0.671 18.5 V 0.70 -0.18 i 691 0.87 Yes Yes
1995BL2 O c 1995-02-01.20545 1.000E-05 09:19:42.610 1.500E-01 0.735 F 0.307 -0.118 +13° 18' 39.00" 1.000E-01 0.735 F 0.103 -0.277 18.3 V 0.70 -0.23 i 691 0.41 Yes Yes
1995BL2 O c 1995-02-01.21303 1.000E-05 09:19:41.340 1.500E-01 0.735 F 0.307 -0.051 +13° 18' 37.10" 1.000E-01 0.735 F 0.103 -0.457 18.2 V 0.70 -0.33 i 691 0.63 Yes Yes
1995BL2 O c 1995-02-01.22057 1.000E-05 09:19:40.070 1.500E-01 0.735 F 0.307 -0.067 +13° 18' 35.70" 1.000E-01 0.735 F 0.103 -0.143 18.3 V 0.70 -0.23 i 691 0.21 Yes Yes
1995BK2 O c 1995-02-01.23079 1.000E-05 09:30:44.570 1.500E-01 0.735 F 0.254 0.078 +21° 04' 06.60" 1.000E-01 0.735 F -0.119 -0.427 18.8 V 0.70 0.04 i 691 0.61 Yes Yes
1995BK2 O c 1995-02-01.23892 1.000E-05 09:30:47.790 1.500E-01 0.735 F 0.254 0.461 +21° 05' 52.00" 1.000E-01 0.735 F -0.119 0.271 18.7 V 0.70 -0.06 i 691 0.77 Yes Yes
1995BK2 O c 1995-02-01.24675 1.000E-05 09:30:50.830 1.500E-01 0.735 F 0.254 0.062 +21° 07' 33.50" 1.000E-01 0.735 F -0.119 1.005 18.6 V 0.70 -0.16 i 691 1.41 Yes Yes
2016AG165 O C 1995-02-01.33756 1.000E-05 09:21:49.580 1.500E-01 0.600 F 0.110 -0.304 +12° 36' 50.30" 1.000E-01 0.600 F 0.023 -0.022 i 691 0.58 Yes No
2016AG165 O C 1995-02-01.36033 1.000E-05 09:21:45.740 1.500E-01 0.600 F 0.110 0.006 +12° 36' 17.10" 1.000E-01 0.600 F 0.023 -0.087 19.8 V 0.70 -0.28 i 691 0.16 Yes Yes
2016AG165 O C 1995-02-01.38228 1.000E-05 09:21:42.030 1.500E-01 0.600 F 0.110 0.104 +12° 35' 45.00" 1.000E-01 0.600 F 0.023 -0.182 i 691 0.41 Yes No
1995BL2 O c 1995-02-01.47506 1.000E-05 09:18:57.010 1.500E-01 0.735 F 0.307 -0.295 +13° 17' 35.10" 1.000E-01 0.735 F 0.103 -0.195 18.3 V 0.70 -0.22 i 691 0.48 Yes Yes
1995BL2 O c 1995-02-01.48108 1.000E-05 09:18:56.030 1.500E-01 0.735 F 0.307 0.187 +13° 17' 33.60" 1.000E-01 0.735 F 0.103 -0.202 18.3 V 0.70 -0.22 i 691 0.38 Yes Yes
1995BL2 O c 1995-02-01.48689 1.000E-05 09:18:55.020 1.500E-01 0.735 F 0.307 -0.294 +13° 17' 31.90" 1.000E-01 0.735 F 0.103 -0.460 18.3 V 0.70 -0.22 i 691 0.74 Yes Yes
1995BK2 O c 1995-02-01.49281 1.000E-05 09:32:26.890 1.500E-01 0.735 F 0.395 0.444 +21° 59' 38.60" 1.000E-01 0.735 F 0.065 0.382 18.7 V 0.70 -0.09 i 691 0.85 Yes Yes
1995BK2 O c 1995-02-01.49883 1.000E-05 09:32:29.330 1.500E-01 0.735 F 0.395 0.937 +22° 00' 55.00" 1.000E-01 0.735 F 0.065 1.284 18.7 V 0.70 -0.09 i 691 2.29 Yes Yes
1995BK2 O c 1995-02-01.50475 1.000E-05 09:32:31.620 1.500E-01 0.735 F 0.395 -0.174 +22° 02' 08.60" 1.000E-01 0.735 F 0.065 0.678 18.9 V 0.70 0.11 i 691 0.98 Yes Yes
1995BK2 O c 1995-02-02.36653 1.000E-05 09:38:33.940 1.500E-01 0.600 F 0.361 -0.229 +25° 00' 35.50" 1.000E-01 0.600 F -0.024 1.016 18.4 V 0.70 -0.52 i 691 1.81 Yes Yes
1995BK2 O c 1995-02-02.37067 1.000E-05 09:38:35.600 1.500E-01 0.600 F 0.361 0.319 +25° 01' 24.40" 1.000E-01 0.600 F -0.024 -0.305 18.4 V 0.70 -0.52 i 691 0.76 Yes Yes
1995BK2 O c 1995-02-02.37520 1.000E-05 09:38:37.300 1.500E-01 0.600 F 0.361 -0.671 +25° 02' 19.00" 1.000E-01 0.600 F -0.024 -0.625 18.5 V 0.70 -0.42 i 691 1.61 Yes Yes
1995BL2 O c 1995-02-02.38902 1.000E-05 09:16:25.000 1.500E-01 0.600 F 0.159 -0.258 +13° 13' 56.70" 1.000E-01 0.600 F -0.276 0.101 18.2 V 0.70 -0.26 i 691 0.46 Yes Yes
1995BL2 O c 1995-02-02.39475 1.000E-05 09:16:24.020 1.500E-01 0.600 F 0.159 -0.262 +13° 13' 55.20" 1.000E-01 0.600 F -0.276 0.015 18.3 V 0.70 -0.16 i 691 0.44 Yes Yes
1995BL2 O c 1995-02-02.40105 1.000E-05 09:16:22.960 1.500E-01 0.600 F 0.159 -0.016 +13° 13' 53.50" 1.000E-01 0.600 F -0.276 -0.128 18.2 V 0.70 -0.26 i 691 0.22 Yes Yes
1995CR O c 1995-02-03.47597 1.000E-05 11:55:35.030 1.500E-01 0.600 F 0.283 0.022 +05° 54' 10.40" 1.000E-01 0.600 F 0.200 -0.034 20.7 V 0.70 -0.41 i 691 0.07 Yes Yes
1995CR O c 1995-02-03.50463 1.000E-05 11:55:33.210 1.500E-01 0.600 F 0.283 0.335 +05° 54' 36.30" 1.000E-01 0.600 F 0.200 -0.625 21.1 V 0.70 -0.01 i 691 1.18 Yes Yes
1995CR O c 1995-02-03.53301 1.000E-05 11:55:31.360 1.500E-01 0.600 F 0.283 -0.241 +05° 55' 02.80" 1.000E-01 0.600 F 0.200 -0.382 20.8 V 0.70 -0.30 i 691 0.75 Yes Yes
1989UP O C 1995-02-04.15653 1.000E-05 02:47:32.210 1.500E-01 0.600 F -0.328 -1.202 +25° 50' 55.80" 1.000E-01 0.600 F -0.073 0.763 i 691 2.38 Yes No
1989UP O C 1995-02-04.16083 1.000E-05 02:47:34.080 1.500E-01 0.600 F -0.328 1.132 +25° 51' 04.70" 1.000E-01 0.600 F -0.073 0.947 i 691 2.46 Yes No
1989UP O C 1995-02-04.16444 1.000E-05 02:47:35.400 1.500E-01 0.600 F -0.328 -0.289 +25° 51' 10.70" 1.000E-01 0.600 F -0.073 -0.365 i 691 0.78 Yes No
1995BL2 O c 1995-02-04.27822 1.000E-05 09:11:06.950 1.500E-01 0.600 F 0.302 -0.042 +13° 06' 13.60" 1.000E-01 0.600 F -0.195 2.012 17.5 V 0.70 -0.88 i 691 3.34 No Yes
1995BL2 O c 1995-02-04.28620 1.000E-05 09:11:05.560 1.500E-01 0.600 F 0.302 -0.115 +13° 06' 09.60" 1.000E-01 0.600 F -0.195 -0.011 17.9 V 0.70 -0.48 i 691 0.19 Yes Yes
1995BL2 O c 1995-02-04.29415 1.000E-05 09:11:04.180 1.500E-01 0.600 F 0.302 -0.111 +13° 06' 07.60" 1.000E-01 0.600 F -0.195 -0.036 17.9 V 0.70 -0.48 i 691 0.20 Yes Yes
1995BK2 O C 1995-02-04.33616 1.000E-05 09:52:23.460 1.500E-01 0.600 F 0.370 -0.290 +31° 17' 47.70" 1.000E-01 0.600 F -0.302 0.393 i 691 0.85 Yes No
1995BK2 O C 1995-02-04.33931 1.000E-05 09:52:24.720 1.500E-01 0.600 F 0.370 -0.067 +31° 18' 20.70" 1.000E-01 0.600 F -0.302 -0.618 i 691 1.11 Yes No
1995BK2 O C 1995-02-04.35597 1.000E-05 09:52:31.290 1.500E-01 0.600 F 0.370 -0.079 +31° 21' 21.30" 1.000E-01 0.600 F -0.302 0.413 i 691 0.74 Yes No
1995CR O c 1995-02-04.36449 1.000E-05 11:54:43.190 1.500E-01 0.600 F 0.305 -0.390 +06° 08' 43.20" 1.000E-01 0.600 F 0.395 -0.154 20.7 V 0.70 -0.28 i 691 0.70 Yes Yes
1995CR O c 1995-02-04.37236 1.000E-05 11:54:42.630 1.500E-01 0.600 F 0.305 -0.082 +06° 08' 51.00" 1.000E-01 0.600 F 0.395 -0.591 21.0 V 0.70 0.03 i 691 1.00 Yes Yes
1995CR O c 1995-02-04.38019 1.000E-05 11:54:42.050 1.500E-01 0.600 F 0.305 -0.082 +06° 08' 59.30" 1.000E-01 0.600 F 0.395 -0.490 20.7 V 0.70 -0.27 i 691 0.83 Yes Yes
1995CS O c 1995-02-04.38835 1.000E-05 10:18:42.970 1.500E-01 0.671 F 0.084 5.989 +10° 28' 58.00" 1.000E-01 0.671 F -0.299 -2.242 18.7 V 0.70 -0.15 i 691 7.46 No Yes
1995CS O c 1995-02-04.41414 1.000E-05 10:17:32.040 1.500E-01 0.671 F 0.224 0.588 +10° 37' 29.00" 1.000E-01 0.671 F -0.173 0.067 18.5 V 0.70 -0.36 i 691 1.12 Yes Yes
1995CS O c 1995-02-04.44330 1.000E-05 10:16:14.020 1.500E-01 0.671 F 0.224 -0.620 +10° 46' 49.30" 1.000E-01 0.671 F -0.173 0.633 19.2 V 0.70 0.32 i 691 1.54 Yes Yes
1995CS O c 1995-02-04.47245 1.000E-05 10:14:58.120 1.500E-01 0.671 F 0.224 -0.532 +10° 55' 52.50" 1.000E-01 0.671 F -0.173 -0.080 18.7 V 0.70 -0.19 i 691 0.93 Yes Yes
1995CS O c 1995-02-04.50240 1.000E-05 10:13:42.310 1.500E-01 0.671 F 0.045 0.596 +11° 04' 55.10" 1.000E-01 0.671 F -0.221 -0.670 18.4 V 0.70 -0.51 i 691 1.55 Yes Yes
1995CS O c 1995-02-05.25472 1.000E-05 09:50:20.060 1.500E-01 0.600 F 0.016 0.364 +13° 55' 19.50" 1.000E-01 0.600 F -0.409 -0.178 18.6 V 0.70 -0.65 i 691 1.17 Yes Yes
1995CS O c 1995-02-05.33521 1.000E-05 09:48:19.570 1.500E-01 0.600 F 0.369 -0.858 +14° 08' 39.50" 1.000E-01 0.600 F 0.075 0.687 18.5 V 0.70 -0.78 i 691 2.23 Yes Yes
1995CS O c 1995-02-05.42042 1.000E-05 09:46:18.220 1.500E-01 0.600 F 0.369 0.453 +14° 21' 46.20" 1.000E-01 0.600 F 0.075 -0.506 19.0 V 0.70 -0.32 i 691 1.60 Yes Yes
1995CR O c 1995-02-05.43668 1.000E-05 11:53:26.520 1.500E-01 0.600 F 0.305 -0.067 +06° 28' 39.90" 1.000E-01 0.600 F 0.395 -0.064 20.7 V 0.70 -0.10 i 691 0.15 Yes Yes
1995CR O c 1995-02-05.44442 1.000E-05 11:53:25.840 1.500E-01 0.600 F 0.305 0.015 +06° 28' 49.20" 1.000E-01 0.600 F 0.395 -0.019 20.6 V 0.70 -0.20 i 691 0.04 Yes Yes
1995CR O c 1995-02-05.45213 1.000E-05 11:53:25.160 1.500E-01 0.600 F 0.305 0.066 +06° 28' 58.20" 1.000E-01 0.600 F 0.395 -0.240 20.5 V 0.70 -0.30 i 691 0.42 Yes Yes
1995CS O c 1995-02-05.48711 1.000E-05 09:44:49.190 1.500E-01 0.600 F 0.166 12.971 +14° 31' 26.50" 1.000E-01 0.600 F -0.245 1.373 19.0 V 0.70 -0.34 i 691 15.97 No Yes
1995CS O c 1995-02-06.27243 1.000E-05 09:31:28.520 1.500E-01 0.600 F -0.391 2.272 +16° 01' 43.10" 1.000E-01 0.600 F 0.229 -0.554 19.5 V 0.70 -0.12 i 691 3.47 No Yes
1995BK2 O C 1995-02-06.27800 1.000E-05 10:06:04.050 1.500E-01 0.600 F -0.142 0.615 +36° 42' 51.70" 1.000E-01 0.600 F -0.065 1.357 i 691 2.72 Yes No
1995CS O c 1995-02-06.43073 1.000E-05 09:29:11.370 1.500E-01 0.600 F 0.082 -2.988 +16° 15' 28.00" 1.000E-01 0.600 F 0.231 0.437 20.5 V 0.70 0.83 i 691 4.13 No Yes
1995BK2 O C 1995-02-06.43552 1.000E-05 10:07:06.060 1.500E-01 0.600 F 0.673 -0.080 +37° 07' 04.40" 1.000E-01 0.600 F -0.070 -0.439 i 691 0.82 Yes No
1995BK2 O C 1995-02-07.30801 1.000E-05 10:13:14.870 1.500E-01 0.600 F -0.056 -0.137 +39° 15' 44.00" 1.000E-01 0.600 F -0.240 -0.593 i 691 1.23 Yes No
1995BK2 O C 1995-02-07.31147 1.000E-05 10:13:16.220 1.500E-01 0.600 F -0.056 -0.160 +39° 16' 14.40" 1.000E-01 0.600 F -0.240 0.150 i 691 0.41 Yes No
1995CS O c 1995-02-07.32091 1.000E-05 09:19:41.000 1.500E-01 0.600 F 0.042 -0.299 +17° 16' 09.80" 1.000E-01 0.600 F -0.153 0.518 21.3 V 0.70 1.23 i 691 1.20 Yes Yes
1995CS O c 1995-02-07.32713 1.000E-05 09:19:37.440 1.500E-01 0.600 F 0.042 0.490 +17° 16' 30.00" 1.000E-01 0.600 F -0.153 0.180 20.5 V 0.70 0.43 i 691 1.05 Yes Yes
1995CS O c 1995-02-07.33326 1.000E-05 09:19:33.840 1.500E-01 0.600 F 0.042 -0.175 +17° 16' 49.30" 1.000E-01 0.600 F -0.153 -0.660 20.7 V 0.70 0.62 i 691 1.34 Yes Yes
1995BL2 O c 1995-02-07.34033 1.000E-05 09:02:23.560 1.500E-01 0.600 F 0.174 -0.041 +12° 52' 59.20" 1.000E-01 0.600 F -0.156 -0.080 18.2 V 0.70 -0.23 i 691 0.15 Yes Yes
1995BL2 O c 1995-02-07.34639 1.000E-05 09:02:22.500 1.500E-01 0.600 F 0.174 0.007 +12° 52' 57.60" 1.000E-01 0.600 F -0.156 -0.045 18.2 V 0.70 -0.24 i 691 0.08 Yes Yes
1995BL2 O c 1995-02-07.35249 1.000E-05 09:02:21.430 1.500E-01 0.600 F 0.174 0.007 +12° 52' 56.00" 1.000E-01 0.600 F -0.156 0.004 18.2 V 0.70 -0.24 i 691 0.01 Yes Yes
1995CR O c 1995-02-07.52090 1.000E-05 11:50:10.960 1.500E-01 0.600 F 0.098 -0.158 +07° 16' 39.10" 1.000E-01 0.600 F -0.265 0.096 20.7 V 0.70 0.27 i 691 0.31 Yes Yes
1995CR O c 1995-02-07.52686 1.000E-05 11:50:10.260 1.500E-01 0.600 F 0.098 0.160 +07° 16' 48.30" 1.000E-01 0.600 F -0.265 -0.105 20.5 V 0.70 0.07 i 691 0.32 Yes Yes
1995CR O c 1995-02-07.53295 1.000E-05 11:50:09.530 1.500E-01 0.600 F 0.098 0.251 +07° 16' 57.60" 1.000E-01 0.600 F -0.265 -0.416 20.5 V 0.70 0.07 i 691 0.81 Yes Yes
1995CR O C 1995-02-08.39936 1.000E-05 11:48:27.200 1.500E-01 0.600 F 0.256 0.220 +07° 41' 28.70" 1.000E-01 0.600 F -0.351 -0.256 i 691 0.56 Yes No
1995CR O C 1995-02-08.40250 1.000E-05 11:48:26.760 1.500E-01 0.600 F 0.256 0.318 +07° 41' 34.80" 1.000E-01 0.600 F -0.351 0.163 i 691 0.60 Yes No
1995CR O C 1995-02-08.40564 1.000E-05 11:48:26.280 1.500E-01 0.600 F 0.256 -0.174 +07° 41' 40.50" 1.000E-01 0.600 F -0.351 0.181 i 691 0.42 Yes No
1995CR O C 1995-02-20.16409 1.000E-05 09:31:13.450 1.500E-01 0.600 F 0.328 0.207 +30° 52' 41.50" 1.000E-01 0.600 F -0.119 -0.610 16.1 V 0.70 -0.69 i 691 1.08 Yes Yes
1995CR O C 1995-02-20.28545 1.000E-05 09:24:57.250 1.500E-01 0.600 F -0.197 0.586 +31° 34' 37.70" 1.000E-01 0.600 F -0.292 -0.475 16.6 V 0.70 -0.19 i 691 1.27 Yes Yes
1995CR O C 1995-02-20.39311 1.000E-05 09:19:05.730 1.500E-01 0.600 F -0.059 -0.512 +32° 11' 41.60" 1.000E-01 0.600 F -0.124 -0.454 16.8 V 0.70 0.02 i 691 1.15 Yes Yes
1995CR O C 1995-02-21.12556 1.000E-05 08:32:06.890 1.500E-01 0.600 F -0.279 0.321 +36° 24' 09.10" 1.000E-01 0.600 F -0.171 -0.300 i 691 0.74 Yes No
1995CR O C 1995-02-21.12875 1.000E-05 08:31:52.410 1.500E-01 0.600 F -0.279 0.779 +36° 25' 13.10" 1.000E-01 0.600 F -0.171 -0.174 i 691 1.34 Yes No
1995BL2 O c 1995-02-21.15514 1.000E-05 08:24:28.230 1.500E-01 0.600 F -0.075 -0.187 +11° 44' 03.90" 1.000E-01 0.600 F -0.417 0.201 18.9 V 0.70 -0.04 i 691 0.46 Yes Yes
1995BL2 O c 1995-02-21.16329 1.000E-05 08:24:27.020 1.500E-01 0.600 F -0.075 0.460 +11° 44' 01.00" 1.000E-01 0.600 F -0.417 -0.100 18.8 V 0.70 -0.14 i 691 0.79 Yes Yes
1995BL2 O c 1995-02-21.17086 1.000E-05 08:24:25.840 1.500E-01 0.600 F -0.075 0.245 +11° 43' 58.60" 1.000E-01 0.600 F -0.417 -0.082 19.0 V 0.70 0.06 i 691 0.43 Yes Yes
1989UP O C 1995-02-22.13097 1.000E-05 04:49:03.860 1.500E-01 0.600 F 0.430 0.027 +32° 11' 19.80" 1.000E-01 0.600 F -0.650 0.627 22.6 V 0.70 1.33 i 691 1.05 Yes Yes
1989UP O C 1995-02-22.13646 1.000E-05 04:49:05.950 1.500E-01 0.600 F 0.430 0.129 +32° 11' 21.40" 1.000E-01 0.600 F -0.650 -0.274 i 691 0.51 Yes No
1989UP O C 1995-02-22.15507 1.000E-05 04:49:12.960 1.500E-01 0.600 F 0.430 -0.506 +32° 11' 30.40" 1.000E-01 0.600 F -0.650 0.339 i 691 1.02 Yes No
1989UP O C 1995-02-22.16016 1.000E-05 04:49:14.860 1.500E-01 0.600 F 0.430 -0.911 +32° 11' 32.80" 1.000E-01 0.600 F -0.650 0.469 22.1 V 0.70 0.83 i 691 1.71 Yes Yes
1995CR O C 1995-02-22.28856 1.000E-05 06:46:42.610 1.500E-01 0.600 F -0.292 -0.113 +40° 42' 10.50" 1.000E-01 0.600 F -0.049 0.317 i 691 0.57 Yes No
1995CR O C 1995-02-22.29125 1.000E-05 06:46:26.110 1.500E-01 0.600 F -0.095 0.659 +40° 42' 19.70" 1.000E-01 0.600 F -0.240 0.227 i 691 1.18 Yes No
1995CR O C 1995-02-22.30473 1.000E-05 06:45:03.000 1.500E-01 0.600 F -0.095 0.696 +40° 43' 04.70" 1.000E-01 0.600 F -0.240 0.250 i 691 1.26 Yes No
1995DV1 O c 1995-02-25.17856 1.000E-05 10:26:36.710 1.500E-01 0.600 F 0.200 -0.201 +03° 46' 48.10" 1.000E-01 0.600 F 0.010 0.081 20.8 V 0.70 0.35 i 691 0.42 Yes Yes
1995DV1 O c 1995-02-25.20026 1.000E-05 10:26:38.170 1.500E-01 0.600 F 0.200 0.609 +03° 47' 15.10" 1.000E-01 0.600 F 0.010 -0.862 20.6 V 0.70 0.14 i 691 2.01 Yes Yes
1995DV1 O c 1995-02-25.22163 1.000E-05 10:26:39.470 1.500E-01 0.600 F 0.200 -0.200 +03° 47' 43.70" 1.000E-01 0.600 F 0.010 0.286 20.8 V 0.70 0.34 i 691 0.65 Yes Yes
1995DW1 O c 1995-02-25.44413 1.000E-05 12:14:45.980 1.500E-01 0.600 F -0.157 -1.900 +03° 23' 04.30" 1.000E-01 0.600 F 0.212 -0.422 i 691 3.20 No No
1995DW1 O c 1995-02-25.47218 1.000E-05 12:14:41.700 1.500E-01 0.600 F -0.157 0.166 +03° 22' 54.30" 1.000E-01 0.600 F 0.212 -0.460 20.4 V 0.70 -0.42 i 691 0.83 Yes Yes
1995DW1 O c 1995-02-25.50121 1.000E-05 12:14:37.160 1.500E-01 0.600 F -0.157 0.462 +03° 22' 44.50" 1.000E-01 0.600 F 0.212 0.085 20.6 V 0.70 -0.22 i 691 0.79 Yes Yes
1995DV1 O c 1995-02-26.25429 1.000E-05 10:27:53.900 1.500E-01 0.600 F 0.029 -0.972 +04° 09' 00.90" 1.000E-01 0.600 F -0.128 0.288 i 691 1.80 Yes No
1995DV1 O c 1995-02-26.25992 1.000E-05 10:27:54.350 1.500E-01 0.600 F 0.029 0.981 +04° 09' 07.60" 1.000E-01 0.600 F -0.128 0.205 20.3 V 0.70 -0.22 i 691 1.78 Yes Yes
1995DV1 O c 1995-02-26.26545 1.000E-05 10:27:54.580 1.500E-01 0.600 F 0.029 -0.258 +04° 09' 14.10" 1.000E-01 0.600 F -0.128 0.048 i 691 0.46 Yes No
1995DW1 O c 1995-02-26.49344 1.000E-05 12:12:03.140 1.500E-01 0.735 F 0.097 -0.129 +03° 16' 51.70" 1.000E-01 0.735 F 0.021 -0.180 20.9 V 0.70 0.16 i 691 0.30 Yes Yes
1995DW1 O c 1995-02-26.49960 1.000E-05 12:12:02.100 1.500E-01 0.735 F 0.097 -0.431 +03° 16' 49.70" 1.000E-01 0.735 F 0.021 0.051 20.7 V 0.70 -0.04 i 691 0.60 Yes Yes
1995DW1 O c 1995-02-26.50585 1.000E-05 12:12:01.040 1.500E-01 0.735 F 0.097 -0.823 +03° 16' 47.50" 1.000E-01 0.735 F 0.021 0.116 20.6 V 0.70 -0.14 i 691 1.14 Yes Yes
1995DW1 O c 1995-02-26.51202 1.000E-05 12:12:00.040 1.500E-01 0.735 F 0.097 -0.529 +03° 16' 45.80" 1.000E-01 0.735 F 0.021 0.654 20.6 V 0.70 -0.14 i 691 1.16 Yes Yes
1995DW1 O c 1995-02-26.51803 1.000E-05 12:11:59.060 1.500E-01 0.735 F 0.097 -0.346 +03° 16' 43.50" 1.000E-01 0.735 F 0.021 0.534 20.8 V 0.70 0.06 i 691 0.88 Yes Yes
1995DW1 O c 1995-02-26.52403 1.000E-05 12:11:58.070 1.500E-01 0.735 F 0.097 -0.352 +03° 16' 40.50" 1.000E-01 0.735 F 0.021 -0.287 i 691 0.62 Yes No
1995DV1 O c 1995-02-27.36968 1.000E-05 10:29:08.010 1.500E-01 0.600 F 0.029 0.070 +04° 30' 35.60" 1.000E-01 0.600 F -0.128 -0.062 20.3 V 0.70 -0.30 i 691 0.18 Yes Yes
1995DV1 O c 1995-02-27.37759 1.000E-05 10:29:08.430 1.500E-01 0.600 F 0.029 0.106 +04° 30' 44.90" 1.000E-01 0.600 F -0.128 0.402 20.2 V 0.70 -0.40 i 691 0.76 Yes Yes
1995DV1 O c 1995-02-27.38568 1.000E-05 10:29:08.870 1.500E-01 0.600 F 0.029 0.268 +04° 30' 53.20" 1.000E-01 0.600 F -0.128 -0.325 20.7 V 0.70 0.10 i 691 0.81 Yes Yes
1995DW1 O c 1995-02-27.39646 1.000E-05 12:09:36.170 1.500E-01 0.600 F 0.097 0.552 +03° 11' 26.20" 1.000E-01 0.600 F 0.021 -0.376 20.5 V 0.70 -0.16 i 691 1.14 Yes Yes
1995DW1 O c 1995-02-27.40448 1.000E-05 12:09:34.740 1.500E-01 0.600 F 0.097 0.212 +03° 11' 23.60" 1.000E-01 0.600 F 0.021 -0.056 20.6 V 0.70 -0.06 i 691 0.37 Yes Yes
1995DW1 O c 1995-02-27.41330 1.000E-05 12:09:33.170 1.500E-01 0.600 F 0.097 -0.120 +03° 11' 20.40" 1.000E-01 0.600 F 0.021 -0.041 20.4 V 0.70 -0.26 i 691 0.21 Yes Yes
1995DV1 O C 1995-03-01.30284 1.000E-05 10:31:08.690 1.500E-01 0.600 F 0.106 -0.698 +05° 04' 49.30" 1.000E-01 0.600 F -0.226 0.072 i 691 1.29 Yes No
Adonis O c 1995-03-02.30765 1.000E-05 11:17:03.810 1.500E-01 0.600 F 0.247 -0.316 +05° 06' 14.60" 1.000E-01 0.600 F -0.071 -1.057 i 691 1.85 Yes No
Adonis O c 1995-03-02.32908 1.000E-05 11:16:59.610 1.500E-01 0.600 F 0.247 -0.458 +05° 06' 39.00" 1.000E-01 0.600 F -0.071 -0.187 19.0 V 0.70 0.23 i 691 0.83 Yes Yes
Adonis O c 1995-03-02.36061 1.000E-05 11:16:53.500 1.500E-01 0.600 F 0.247 0.309 +05° 07' 13.80" 1.000E-01 0.600 F -0.071 0.064 i 691 0.53 Yes No
1995BL2 O c 1995-03-05.14297 1.000E-05 07:58:40.360 1.500E-01 0.600 F 0.192 -1.515 +10° 37' 44.10" 1.000E-01 0.600 F -0.037 0.835 19.1 V 0.70 -0.21 i 691 2.89 Yes Yes
1995BL2 O c 1995-03-05.15077 1.000E-05 07:58:39.590 1.500E-01 0.600 F 0.192 -0.336 +10° 37' 40.60" 1.000E-01 0.600 F -0.037 -0.086 19.3 V 0.70 -0.01 i 691 0.58 Yes Yes
1995BL2 O c 1995-03-05.15881 1.000E-05 07:58:38.680 1.500E-01 0.600 F 0.192 -0.834 +10° 37' 37.60" 1.000E-01 0.600 F -0.037 -0.423 i 691 1.56 Yes No
1995DV1 O c 1995-03-05.26487 1.000E-05 10:34:40.730 1.500E-01 0.600 F 0.058 0.004 +06° 03' 52.90" 1.000E-01 0.600 F -0.303 -0.092 i 691 0.19 Yes No
1995DV1 O c 1995-03-05.27546 1.000E-05 10:34:41.140 1.500E-01 0.600 F 0.058 0.182 +06° 04' 01.40" 1.000E-01 0.600 F -0.303 -0.022 i 691 0.37 Yes No
1995DV1 O c 1995-03-05.29108 1.000E-05 10:34:41.720 1.500E-01 0.600 F 0.058 0.110 +06° 04' 13.80" 1.000E-01 0.600 F -0.303 -0.022 i 691 0.22 Yes No
1995DW1 O c 1995-03-05.36756 1.000E-05 11:50:11.340 1.500E-01 0.600 F -0.345 0.987 +02° 32' 55.00" 1.000E-01 0.600 F 0.286 -0.199 20.4 V 0.70 0.29 i 691 1.72 Yes Yes
1995DW1 O c 1995-03-05.37311 1.000E-05 11:50:10.030 1.500E-01 0.600 F -0.345 0.652 +02° 32' 52.80" 1.000E-01 0.600 F 0.286 -0.087 20.2 V 0.70 0.09 i 691 1.12 Yes Yes
1995DW1 O c 1995-03-05.37917 1.000E-05 11:50:08.690 1.500E-01 0.600 F -0.345 1.643 +02° 32' 50.00" 1.000E-01 0.600 F 0.286 -0.362 20.7 V 0.70 0.59 i 691 2.87 Yes Yes
1995DW1 O C 1995-03-09.46153 1.000E-05 11:33:37.700 1.500E-01 0.600 F 0.539 -0.850 +02° 02' 51.60" 1.000E-01 0.600 F 0.215 0.415 20.2 0.70 -0.25 i 691 1.62 Yes Yes
1995DW1 O C 1995-03-09.46479 1.000E-05 11:33:36.820 1.500E-01 0.600 F 0.539 -0.952 +02° 02' 50.20" 1.000E-01 0.600 F 0.215 0.551 i 691 1.89 Yes No
1995DW1 O C 1995-03-10.32596 1.000E-05 11:29:49.420 1.500E-01 0.600 F 0.065 0.010 +01° 56' 02.90" 1.000E-01 0.600 F 0.226 0.433 20.1 0.70 -0.24 i 691 0.73 Yes Yes
1995DW1 O C 1995-03-10.33251 1.000E-05 11:29:47.580 1.500E-01 0.600 F 0.065 -0.180 +01° 55' 59.40" 1.000E-01 0.600 F 0.226 0.074 i 691 0.33 Yes No
1995FG O c 1995-03-27.28053 1.000E-05 12:29:41.470 1.500E-01 0.600 F 0.182 0.192 -02° 55' 21.40" 1.000E-01 0.600 F -0.460 -0.401 20.2 V 0.70 -0.27 i 691 0.78 Yes Yes

[1-200] [201-400] [401-600] [601-800] [801-1000] [1001-1200] [1201-1400] [1401-1600] [1601-1800] [1801-2000] [2001-2200] [2201-2400] [2401-2600] [2601-2800] [2801-3000] [3001-3200] [3201-3400] [3401-3600] [3601-3800] [3801-4000] [4001-4200] [4201-4400] [4401-4600] [4601-4800] [4801-5000] [5001-5200] [5201-5400] [5401-5600] [5601-5800] [5801-6000] [6001-6200] [6201-6400] [6401-6600] [6601-6800] [6801-7000] [7001-7200] [7201-7400] [7401-7600] [7601-7800] [7801-8000] [8001-8200] [8201-8400] [8401-8600] [8601-8800] [8801-9000] [9001-9200] [9201-9400] [9401-9600] [9601-9800] [9801-10000] [10001-10200] [10201-10400] [10401-10600] [10601-10800] [10801-11000] [11001-11200] [11201-11400] [11401-11600] [11601-11800] [11801-12000] [12001-12200] [12201-12400] [12401-12600] [12601-12800] [12801-13000] [13001-13200] [13201-13400] [13401-13600] [13601-13800] [13801-14000] [14001-14200] [14201-14400] [14401-14600] [14601-14800] [14801-15000] [15001-15200] [15201-15400] [15401-15600] [15601-15800] [15801-16000] [16001-16200] [16201-16400] [16401-16600] [16601-16800] [16801-17000] [17001-17200] [17201-17400] [17401-17600] [17601-17800] [17801-18000] [18001-18200] [18201-18400] [18401-18600] [18601-18800] [18801-19000] [19001-19200] [19201-19400] [19401-19600] [19601-19800] [19801-20000] [20001-20200] [20201-20400] [20401-20600] [20601-20800] [20801-21000] [21001-21200] [21201-21400] [21401-21600] [21601-21800] [21801-22000] [22001-22200] [22201-22400] [22401-22600] [22601-22800] [22801-23000] [23001-23200] [23201-23400] [23401-23600] [23601-23800] [23801-24000] [24001-24200] [24201-24400] [24401-24600] [24601-24800] [24801-25000] [25001-25200] [25201-25400] [25401-25600] [25601-25800] [25801-26000] [26001-26200] [26201-26400] [26401-26600] [26601-26800] [26801-27000] [27001-27200] [27201-27400] [27401-27600] [27601-27800] [27801-28000] [28001-28200] [28201-28400] [28401-28600] [28601-28800] [28801-29000] [29001-29200] [29201-29400] [29401-29600] [29601-29800] [29801-30000] [30001-30200] [30201-30400] [30401-30600] [30601-30800] [30801-31000] [31001-31200] [31201-31400] [31401-31600] [31601-31800] [31801-32000] [32001-32200] [32201-32400] [32401-32600] [32601-32800] [32801-33000] [33001-33200] [33201-33400] [33401-33600] [33601-33800] [33801-34000] [34001-34200] [34201-34400] [34401-34600] [34601-34800] [34801-35000] [35001-35200] [35201-35400] [35401-35600] [35601-35800] [35801-36000] [36001-36200] [36201-36400] [36401-36600] [36601-36800] [36801-37000] [37001-37200] [37201-37400] [37401-37600] [37601-37800] [37801-38000] [38001-38200] [38201-38400] [38401-38600] [38601-38800] [38801-39000] [39001-39200] [39201-39400] [39401-39600] [39601-39800] [39801-40000] [40001-40200] [40201-40400] [40401-40600] [40601-40800] [40801-41000] [41001-41200] [41201-41400] [41401-41600] [41601-41800] [41801-42000] [42001-42200] [42201-42400] [42401-42600] [42601-42800] [42801-43000] [43001-43200] [43201-43400] [43401-43600] [43601-43800] [43801-44000] [44001-44200] [44201-44400] [44401-44600] [44601-44800] [44801-45000] [45001-45200] [45201-45400] [45401-45600] [45601-45800] [45801-46000] [46001-46200] [46201-46400] [46401-46600] [46601-46800] [46801-47000] [47001-47200] [47201-47400] [47401-47600] [47601-47800] [47801-48000] [48001-48200] [48201-48400] [48401-48600] [48601-48800] [48801-49000] [49001-49200] [49201-49400] [49401-49600] [49601-49800] [49801-50000] [50001-50200] [50201-50400] [50401-50600] [50601-50741]